sensor_id;sensor_type;location;lat;lon;timestamp;P1;durP1;ratioP1;P2;durP2;ratioP2
64842;SDS011;51310;52.198;5.422;2024-02-26T00:00:37;5.07;;;3.20;;
64842;SDS011;51310;52.198;5.422;2024-02-26T00:03:03;8.57;;;4.00;;
64842;SDS011;51310;52.198;5.422;2024-02-26T00:05:29;5.40;;;3.50;;
64842;SDS011;51310;52.198;5.422;2024-02-26T00:07:56;10.88;;;4.13;;
64842;SDS011;51310;52.198;5.422;2024-02-26T00:10:22;6.55;;;4.45;;
64842;SDS011;51310;52.198;5.422;2024-02-26T00:12:49;8.23;;;4.80;;
64842;SDS011;51310;52.198;5.422;2024-02-26T00:15:15;7.57;;;3.80;;
64842;SDS011;51310;52.198;5.422;2024-02-26T00:17:40;9.30;;;3.80;;
64842;SDS011;51310;52.198;5.422;2024-02-26T00:20:06;5.53;;;3.75;;
64842;SDS011;51310;52.198;5.422;2024-02-26T00:22:35;6.57;;;4.35;;
64842;SDS011;51310;52.198;5.422;2024-02-26T00:25:01;6.82;;;4.30;;
64842;SDS011;51310;52.198;5.422;2024-02-26T00:27:27;8.38;;;4.60;;
64842;SDS011;51310;52.198;5.422;2024-02-26T00:29:53;10.05;;;4.65;;
64842;SDS011;51310;52.198;5.422;2024-02-26T00:32:19;12.32;;;4.93;;
64842;SDS011;51310;52.198;5.422;2024-02-26T00:34:45;5.60;;;4.47;;
64842;SDS011;51310;52.198;5.422;2024-02-26T00:37:11;6.05;;;4.78;;
64842;SDS011;51310;52.198;5.422;2024-02-26T00:39:36;7.28;;;5.05;;
64842;SDS011;51310;52.198;5.422;2024-02-26T00:42:02;6.68;;;4.57;;
64842;SDS011;51310;52.198;5.422;2024-02-26T00:44:29;10.60;;;5.63;;
64842;SDS011;51310;52.198;5.422;2024-02-26T00:46:54;8.05;;;5.07;;
64842;SDS011;51310;52.198;5.422;2024-02-26T00:49:20;6.82;;;4.68;;
64842;SDS011;51310;52.198;5.422;2024-02-26T00:51:46;6.40;;;4.22;;
64842;SDS011;51310;52.198;5.422;2024-02-26T00:54:12;11.00;;;5.55;;
64842;SDS011;51310;52.198;5.422;2024-02-26T00:56:38;10.35;;;4.45;;
64842;SDS011;51310;52.198;5.422;2024-02-26T00:59:04;7.38;;;4.72;;
64842;SDS011;51310;52.198;5.422;2024-02-26T01:01:30;6.57;;;4.75;;
64842;SDS011;51310;52.198;5.422;2024-02-26T01:03:55;5.60;;;4.25;;
64842;SDS011;51310;52.198;5.422;2024-02-26T01:06:21;9.65;;;5.05;;
64842;SDS011;51310;52.198;5.422;2024-02-26T01:08:47;9.07;;;5.13;;
64842;SDS011;51310;52.198;5.422;2024-02-26T01:11:13;7.00;;;4.90;;
64842;SDS011;51310;52.198;5.422;2024-02-26T01:13:39;6.93;;;4.80;;
64842;SDS011;51310;52.198;5.422;2024-02-26T01:16:05;8.35;;;5.50;;
64842;SDS011;51310;52.198;5.422;2024-02-26T01:18:31;7.88;;;4.97;;
64842;SDS011;51310;52.198;5.422;2024-02-26T01:20:57;6.90;;;5.07;;
64842;SDS011;51310;52.198;5.422;2024-02-26T01:23:23;11.43;;;5.95;;
64842;SDS011;51310;52.198;5.422;2024-02-26T01:25:49;8.25;;;5.30;;
64842;SDS011;51310;52.198;5.422;2024-02-26T01:28:14;12.10;;;4.85;;
64842;SDS011;51310;52.198;5.422;2024-02-26T01:30:41;7.78;;;5.40;;
64842;SDS011;51310;52.198;5.422;2024-02-26T01:33:07;7.53;;;5.07;;
64842;SDS011;51310;52.198;5.422;2024-02-26T01:35:33;8.65;;;5.43;;
64842;SDS011;51310;52.198;5.422;2024-02-26T01:37:59;10.00;;;5.32;;
64842;SDS011;51310;52.198;5.422;2024-02-26T01:40:28;12.73;;;5.38;;
64842;SDS011;51310;52.198;5.422;2024-02-26T01:42:54;15.65;;;5.97;;
64842;SDS011;51310;52.198;5.422;2024-02-26T01:45:20;8.40;;;5.32;;
64842;SDS011;51310;52.198;5.422;2024-02-26T01:47:52;7.75;;;5.05;;
64842;SDS011;51310;52.198;5.422;2024-02-26T01:50:19;9.02;;;5.00;;
64842;SDS011;51310;52.198;5.422;2024-02-26T01:52:47;9.20;;;5.38;;
64842;SDS011;51310;52.198;5.422;2024-02-26T01:55:15;7.85;;;5.32;;
64842;SDS011;51310;52.198;5.422;2024-02-26T01:57:45;7.97;;;5.30;;
64842;SDS011;51310;52.198;5.422;2024-02-26T02:00:16;9.07;;;5.53;;
64842;SDS011;51310;52.198;5.422;2024-02-26T02:02:43;11.52;;;5.47;;
64842;SDS011;51310;52.198;5.422;2024-02-26T02:05:12;8.88;;;5.38;;
64842;SDS011;51310;52.198;5.422;2024-02-26T02:07:41;10.85;;;6.18;;
64842;SDS011;51310;52.198;5.422;2024-02-26T02:10:08;15.55;;;5.82;;
64842;SDS011;51310;52.198;5.422;2024-02-26T02:12:35;10.32;;;6.13;;
64842;SDS011;51310;52.198;5.422;2024-02-26T02:15:03;10.27;;;6.07;;
64842;SDS011;51310;52.198;5.422;2024-02-26T02:17:30;11.48;;;6.53;;
64842;SDS011;51310;52.198;5.422;2024-02-26T02:19:56;10.85;;;6.97;;
64842;SDS011;51310;52.198;5.422;2024-02-26T02:22:22;12.60;;;7.15;;
64842;SDS011;51310;52.198;5.422;2024-02-26T02:24:49;12.85;;;6.43;;
64842;SDS011;51310;52.198;5.422;2024-02-26T02:27:18;10.85;;;6.47;;
64842;SDS011;51310;52.198;5.422;2024-02-26T02:29:45;15.77;;;7.18;;
64842;SDS011;51310;52.198;5.422;2024-02-26T02:32:13;11.80;;;7.70;;
64842;SDS011;51310;52.198;5.422;2024-02-26T02:34:42;11.23;;;6.93;;
64842;SDS011;51310;52.198;5.422;2024-02-26T02:37:08;13.77;;;6.70;;
64842;SDS011;51310;52.198;5.422;2024-02-26T02:39:34;12.48;;;6.15;;
64842;SDS011;51310;52.198;5.422;2024-02-26T02:41:59;10.13;;;6.97;;
64842;SDS011;51310;52.198;5.422;2024-02-26T02:44:25;15.02;;;7.97;;
64842;SDS011;51310;52.198;5.422;2024-02-26T02:46:51;10.45;;;7.13;;
64842;SDS011;51310;52.198;5.422;2024-02-26T02:49:18;16.48;;;7.68;;
64842;SDS011;51310;52.198;5.422;2024-02-26T02:51:44;12.32;;;7.20;;
64842;SDS011;51310;52.198;5.422;2024-02-26T02:54:10;10.25;;;6.75;;
64842;SDS011;51310;52.198;5.422;2024-02-26T02:56:36;13.27;;;6.95;;
64842;SDS011;51310;52.198;5.422;2024-02-26T02:59:02;13.40;;;7.20;;
64842;SDS011;51310;52.198;5.422;2024-02-26T03:01:28;11.70;;;7.03;;
64842;SDS011;51310;52.198;5.422;2024-02-26T03:03:53;10.75;;;6.30;;
64842;SDS011;51310;52.198;5.422;2024-02-26T03:06:20;18.27;;;7.20;;
64842;SDS011;51310;52.198;5.422;2024-02-26T03:08:46;12.93;;;7.50;;
64842;SDS011;51310;52.198;5.422;2024-02-26T03:11:15;13.00;;;7.72;;
64842;SDS011;51310;52.198;5.422;2024-02-26T03:13:41;11.63;;;6.93;;
64842;SDS011;51310;52.198;5.422;2024-02-26T03:16:07;13.10;;;7.28;;
64842;SDS011;51310;52.198;5.422;2024-02-26T03:18:33;14.10;;;7.50;;
64842;SDS011;51310;52.198;5.422;2024-02-26T03:20:59;11.85;;;7.30;;
64842;SDS011;51310;52.198;5.422;2024-02-26T03:23:25;12.82;;;6.03;;
64842;SDS011;51310;52.198;5.422;2024-02-26T03:25:51;16.02;;;7.13;;
64842;SDS011;51310;52.198;5.422;2024-02-26T03:28:17;13.30;;;7.13;;
64842;SDS011;51310;52.198;5.422;2024-02-26T03:30:43;12.27;;;6.95;;
64842;SDS011;51310;52.198;5.422;2024-02-26T03:33:09;12.48;;;6.40;;
64842;SDS011;51310;52.198;5.422;2024-02-26T03:35:35;16.15;;;7.25;;
64842;SDS011;51310;52.198;5.422;2024-02-26T03:38:01;13.43;;;7.20;;
64842;SDS011;51310;52.198;5.422;2024-02-26T03:40:27;12.38;;;7.20;;
64842;SDS011;51310;52.198;5.422;2024-02-26T03:42:53;15.50;;;6.78;;
64842;SDS011;51310;52.198;5.422;2024-02-26T03:45:19;14.90;;;7.43;;
64842;SDS011;51310;52.198;5.422;2024-02-26T03:47:45;11.43;;;6.25;;
64842;SDS011;51310;52.198;5.422;2024-02-26T03:50:11;11.65;;;6.32;;
64842;SDS011;51310;52.198;5.422;2024-02-26T03:52:37;8.35;;;5.63;;
64842;SDS011;51310;52.198;5.422;2024-02-26T03:55:02;12.55;;;6.70;;
64842;SDS011;51310;52.198;5.422;2024-02-26T03:57:29;12.75;;;6.43;;
64842;SDS011;51310;52.198;5.422;2024-02-26T03:59:55;12.98;;;7.38;;
64842;SDS011;51310;52.198;5.422;2024-02-26T04:02:21;11.13;;;6.75;;
64842;SDS011;51310;52.198;5.422;2024-02-26T04:04:48;11.18;;;6.75;;
64842;SDS011;51310;52.198;5.422;2024-02-26T04:07:14;14.57;;;6.30;;
64842;SDS011;51310;52.198;5.422;2024-02-26T04:09:40;11.20;;;6.40;;
64842;SDS011;51310;52.198;5.422;2024-02-26T04:12:06;11.52;;;6.78;;
64842;SDS011;51310;52.198;5.422;2024-02-26T04:14:32;13.20;;;6.70;;
64842;SDS011;51310;52.198;5.422;2024-02-26T04:16:58;11.50;;;6.53;;
64842;SDS011;51310;52.198;5.422;2024-02-26T04:19:24;14.57;;;7.00;;
64842;SDS011;51310;52.198;5.422;2024-02-26T04:21:50;14.43;;;7.20;;
64842;SDS011;51310;52.198;5.422;2024-02-26T04:24:16;13.52;;;7.03;;
64842;SDS011;51310;52.198;5.422;2024-02-26T04:26:42;12.38;;;6.50;;
64842;SDS011;51310;52.198;5.422;2024-02-26T04:29:07;14.35;;;8.35;;
64842;SDS011;51310;52.198;5.422;2024-02-26T04:31:33;15.60;;;7.22;;
64842;SDS011;51310;52.198;5.422;2024-02-26T04:33:59;14.02;;;7.30;;
64842;SDS011;51310;52.198;5.422;2024-02-26T04:36:25;16.40;;;7.63;;
64842;SDS011;51310;52.198;5.422;2024-02-26T04:38:51;16.80;;;9.05;;
64842;SDS011;51310;52.198;5.422;2024-02-26T04:41:19;15.55;;;7.80;;
64842;SDS011;51310;52.198;5.422;2024-02-26T04:43:45;21.60;;;9.40;;
64842;SDS011;51310;52.198;5.422;2024-02-26T04:46:11;16.30;;;8.20;;
64842;SDS011;51310;52.198;5.422;2024-02-26T04:48:37;16.98;;;9.00;;
64842;SDS011;51310;52.198;5.422;2024-02-26T04:51:03;14.15;;;8.15;;
64842;SDS011;51310;52.198;5.422;2024-02-26T04:53:30;12.65;;;7.82;;
64842;SDS011;51310;52.198;5.422;2024-02-26T04:55:56;13.57;;;8.10;;
64842;SDS011;51310;52.198;5.422;2024-02-26T04:58:22;17.35;;;8.77;;
64842;SDS011;51310;52.198;5.422;2024-02-26T05:00:48;13.70;;;7.78;;
64842;SDS011;51310;52.198;5.422;2024-02-26T05:03:14;13.95;;;7.50;;
64842;SDS011;51310;52.198;5.422;2024-02-26T05:05:41;14.70;;;7.70;;
64842;SDS011;51310;52.198;5.422;2024-02-26T05:08:08;18.15;;;8.30;;
64842;SDS011;51310;52.198;5.422;2024-02-26T05:10:34;17.30;;;9.02;;
64842;SDS011;51310;52.198;5.422;2024-02-26T05:13:04;17.17;;;8.40;;
64842;SDS011;51310;52.198;5.422;2024-02-26T05:15:31;12.45;;;7.70;;
64842;SDS011;51310;52.198;5.422;2024-02-26T05:17:57;17.40;;;9.43;;
64842;SDS011;51310;52.198;5.422;2024-02-26T05:20:23;12.73;;;8.27;;
64842;SDS011;51310;52.198;5.422;2024-02-26T05:22:49;15.73;;;8.60;;
64842;SDS011;51310;52.198;5.422;2024-02-26T05:25:15;16.58;;;9.00;;
64842;SDS011;51310;52.198;5.422;2024-02-26T05:27:42;14.82;;;8.93;;
64842;SDS011;51310;52.198;5.422;2024-02-26T05:30:09;14.73;;;9.48;;
64842;SDS011;51310;52.198;5.422;2024-02-26T05:32:36;19.38;;;9.63;;
64842;SDS011;51310;52.198;5.422;2024-02-26T05:35:03;16.85;;;9.10;;
64842;SDS011;51310;52.198;5.422;2024-02-26T05:37:29;16.70;;;8.88;;
64842;SDS011;51310;52.198;5.422;2024-02-26T05:39:55;14.88;;;8.55;;
64842;SDS011;51310;52.198;5.422;2024-02-26T05:42:21;16.50;;;9.18;;
64842;SDS011;51310;52.198;5.422;2024-02-26T05:44:47;18.55;;;9.77;;
64842;SDS011;51310;52.198;5.422;2024-02-26T05:47:13;18.88;;;10.00;;
64842;SDS011;51310;52.198;5.422;2024-02-26T05:49:39;20.10;;;9.45;;
64842;SDS011;51310;52.198;5.422;2024-02-26T05:52:05;17.20;;;9.13;;
64842;SDS011;51310;52.198;5.422;2024-02-26T05:54:31;19.17;;;10.07;;
64842;SDS011;51310;52.198;5.422;2024-02-26T05:56:57;15.68;;;9.18;;
64842;SDS011;51310;52.198;5.422;2024-02-26T05:59:23;19.35;;;9.30;;
64842;SDS011;51310;52.198;5.422;2024-02-26T06:01:49;17.35;;;9.90;;
64842;SDS011;51310;52.198;5.422;2024-02-26T06:04:15;17.20;;;10.43;;
64842;SDS011;51310;52.198;5.422;2024-02-26T06:06:42;19.60;;;10.00;;
64842;SDS011;51310;52.198;5.422;2024-02-26T06:09:10;19.08;;;9.80;;
64842;SDS011;51310;52.198;5.422;2024-02-26T06:11:37;20.88;;;11.20;;
64842;SDS011;51310;52.198;5.422;2024-02-26T06:14:03;19.02;;;9.85;;
64842;SDS011;51310;52.198;5.422;2024-02-26T06:16:29;20.50;;;10.75;;
64842;SDS011;51310;52.198;5.422;2024-02-26T06:18:56;21.90;;;8.98;;
64842;SDS011;51310;52.198;5.422;2024-02-26T06:21:22;21.05;;;10.35;;
64842;SDS011;51310;52.198;5.422;2024-02-26T06:23:48;20.55;;;10.77;;
64842;SDS011;51310;52.198;5.422;2024-02-26T06:26:15;19.67;;;10.00;;
64842;SDS011;51310;52.198;5.422;2024-02-26T06:28:41;23.20;;;11.38;;
64842;SDS011;51310;52.198;5.422;2024-02-26T06:31:07;22.13;;;10.75;;
64842;SDS011;51310;52.198;5.422;2024-02-26T06:33:33;26.80;;;11.75;;
64842;SDS011;51310;52.198;5.422;2024-02-26T06:35:59;27.52;;;11.77;;
64842;SDS011;51310;52.198;5.422;2024-02-26T06:38:25;25.05;;;13.70;;
64842;SDS011;51310;52.198;5.422;2024-02-26T06:40:51;28.33;;;12.73;;
64842;SDS011;51310;52.198;5.422;2024-02-26T06:43:17;27.85;;;13.35;;
64842;SDS011;51310;52.198;5.422;2024-02-26T06:45:43;28.88;;;13.98;;
64842;SDS011;51310;52.198;5.422;2024-02-26T06:48:09;30.73;;;13.43;;
64842;SDS011;51310;52.198;5.422;2024-02-26T06:50:35;36.90;;;17.00;;
64842;SDS011;51310;52.198;5.422;2024-02-26T06:53:01;35.63;;;15.60;;
64842;SDS011;51310;52.198;5.422;2024-02-26T06:55:26;30.90;;;14.50;;
64842;SDS011;51310;52.198;5.422;2024-02-26T06:57:52;30.60;;;14.45;;
64842;SDS011;51310;52.198;5.422;2024-02-26T07:00:18;43.35;;;17.83;;
64842;SDS011;51310;52.198;5.422;2024-02-26T07:02:44;39.03;;;16.33;;
64842;SDS011;51310;52.198;5.422;2024-02-26T07:05:10;39.30;;;18.67;;
64842;SDS011;51310;52.198;5.422;2024-02-26T07:07:37;39.55;;;18.40;;
64842;SDS011;51310;52.198;5.422;2024-02-26T07:10:03;48.22;;;17.35;;
64842;SDS011;51310;52.198;5.422;2024-02-26T07:12:30;41.67;;;20.42;;
64842;SDS011;51310;52.198;5.422;2024-02-26T07:14:56;46.80;;;19.92;;
64842;SDS011;51310;52.198;5.422;2024-02-26T07:17:23;38.38;;;19.25;;
64842;SDS011;51310;52.198;5.422;2024-02-26T07:19:49;42.97;;;18.88;;
64842;SDS011;51310;52.198;5.422;2024-02-26T07:22:15;45.30;;;20.10;;
64842;SDS011;51310;52.198;5.422;2024-02-26T07:24:41;50.17;;;21.25;;
64842;SDS011;51310;52.198;5.422;2024-02-26T07:27:07;38.85;;;17.92;;
64842;SDS011;51310;52.198;5.422;2024-02-26T07:29:33;40.85;;;20.08;;
64842;SDS011;51310;52.198;5.422;2024-02-26T07:31:59;50.83;;;21.75;;
64842;SDS011;51310;52.198;5.422;2024-02-26T07:34:25;46.47;;;20.13;;
64842;SDS011;51310;52.198;5.422;2024-02-26T07:36:54;48.30;;;19.50;;
64842;SDS011;51310;52.198;5.422;2024-02-26T07:39:22;40.47;;;18.58;;
64842;SDS011;51310;52.198;5.422;2024-02-26T07:41:48;38.95;;;21.00;;
64842;SDS011;51310;52.198;5.422;2024-02-26T07:44:16;38.78;;;19.13;;
64842;SDS011;51310;52.198;5.422;2024-02-26T07:46:43;40.97;;;18.88;;
64842;SDS011;51310;52.198;5.422;2024-02-26T07:49:09;32.58;;;15.80;;
64842;SDS011;51310;52.198;5.422;2024-02-26T07:51:35;25.10;;;14.20;;
64842;SDS011;51310;52.198;5.422;2024-02-26T07:54:01;23.95;;;13.63;;
64842;SDS011;51310;52.198;5.422;2024-02-26T07:56:27;32.67;;;15.75;;
64842;SDS011;51310;52.198;5.422;2024-02-26T07:58:53;28.50;;;15.80;;
64842;SDS011;51310;52.198;5.422;2024-02-26T08:01:19;27.90;;;14.35;;
64842;SDS011;51310;52.198;5.422;2024-02-26T08:03:45;30.92;;;15.30;;
64842;SDS011;51310;52.198;5.422;2024-02-26T08:06:11;27.27;;;14.05;;
64842;SDS011;51310;52.198;5.422;2024-02-26T08:08:36;25.77;;;13.13;;
64842;SDS011;51310;52.198;5.422;2024-02-26T08:11:03;21.73;;;12.85;;
64842;SDS011;51310;52.198;5.422;2024-02-26T08:13:29;22.70;;;11.43;;
64842;SDS011;51310;52.198;5.422;2024-02-26T08:15:54;24.40;;;11.43;;
64842;SDS011;51310;52.198;5.422;2024-02-26T08:18:20;19.27;;;10.63;;
64842;SDS011;51310;52.198;5.422;2024-02-26T08:20:46;19.83;;;10.60;;
64842;SDS011;51310;52.198;5.422;2024-02-26T08:23:14;20.58;;;11.63;;
64842;SDS011;51310;52.198;5.422;2024-02-26T08:25:39;26.83;;;12.73;;
64842;SDS011;51310;52.198;5.422;2024-02-26T08:28:05;20.38;;;10.75;;
64842;SDS011;51310;52.198;5.422;2024-02-26T08:30:31;20.80;;;12.25;;
64842;SDS011;51310;52.198;5.422;2024-02-26T08:32:58;16.55;;;9.93;;
64842;SDS011;51310;52.198;5.422;2024-02-26T08:35:24;19.33;;;10.45;;
64842;SDS011;51310;52.198;5.422;2024-02-26T08:37:50;16.38;;;9.20;;
64842;SDS011;51310;52.198;5.422;2024-02-26T08:40:16;18.83;;;10.45;;
64842;SDS011;51310;52.198;5.422;2024-02-26T08:42:42;21.10;;;9.85;;
64842;SDS011;51310;52.198;5.422;2024-02-26T08:45:08;19.73;;;10.75;;
64842;SDS011;51310;52.198;5.422;2024-02-26T08:47:35;19.45;;;10.18;;
64842;SDS011;51310;52.198;5.422;2024-02-26T08:50:00;17.60;;;9.27;;
64842;SDS011;51310;52.198;5.422;2024-02-26T08:52:27;19.67;;;10.02;;
64842;SDS011;51310;52.198;5.422;2024-02-26T08:54:52;18.25;;;9.80;;
64842;SDS011;51310;52.198;5.422;2024-02-26T08:57:18;17.55;;;9.20;;
64842;SDS011;51310;52.198;5.422;2024-02-26T08:59:44;15.52;;;9.55;;
64842;SDS011;51310;52.198;5.422;2024-02-26T09:02:10;16.92;;;8.85;;
64842;SDS011;51310;52.198;5.422;2024-02-26T09:04:36;14.52;;;8.95;;
64842;SDS011;51310;52.198;5.422;2024-02-26T09:07:02;15.35;;;7.97;;
64842;SDS011;51310;52.198;5.422;2024-02-26T09:09:28;12.23;;;7.38;;
64842;SDS011;51310;52.198;5.422;2024-02-26T09:11:54;15.70;;;8.13;;
64842;SDS011;51310;52.198;5.422;2024-02-26T09:14:20;12.48;;;7.60;;
64842;SDS011;51310;52.198;5.422;2024-02-26T09:16:47;16.73;;;7.15;;
64842;SDS011;51310;52.198;5.422;2024-02-26T09:19:17;13.30;;;7.53;;
64842;SDS011;51310;52.198;5.422;2024-02-26T09:21:43;16.75;;;8.13;;
64842;SDS011;51310;52.198;5.422;2024-02-26T09:24:10;15.70;;;6.72;;
64842;SDS011;51310;52.198;5.422;2024-02-26T09:26:37;10.07;;;5.63;;
64842;SDS011;51310;52.198;5.422;2024-02-26T09:29:03;12.95;;;6.22;;
64842;SDS011;51310;52.198;5.422;2024-02-26T09:31:30;12.85;;;7.22;;
64842;SDS011;51310;52.198;5.422;2024-02-26T09:33:56;14.30;;;7.50;;
64842;SDS011;51310;52.198;5.422;2024-02-26T09:36:23;12.77;;;7.78;;
64842;SDS011;51310;52.198;5.422;2024-02-26T09:38:49;13.30;;;6.35;;
64842;SDS011;51310;52.198;5.422;2024-02-26T09:41:14;14.68;;;8.05;;
64842;SDS011;51310;52.198;5.422;2024-02-26T09:43:44;12.07;;;7.18;;
64842;SDS011;51310;52.198;5.422;2024-02-26T09:46:13;13.00;;;6.22;;
64842;SDS011;51310;52.198;5.422;2024-02-26T09:48:40;15.02;;;6.88;;
64842;SDS011;51310;52.198;5.422;2024-02-26T09:51:09;13.57;;;8.32;;
64842;SDS011;51310;52.198;5.422;2024-02-26T09:53:37;12.65;;;7.10;;
64842;SDS011;51310;52.198;5.422;2024-02-26T09:56:07;17.58;;;7.93;;
64842;SDS011;51310;52.198;5.422;2024-02-26T09:58:34;14.98;;;7.60;;
64842;SDS011;51310;52.198;5.422;2024-02-26T10:01:02;13.27;;;7.38;;
64842;SDS011;51310;52.198;5.422;2024-02-26T10:03:40;12.98;;;7.65;;
64842;SDS011;51310;52.198;5.422;2024-02-26T10:06:09;14.95;;;7.03;;
64842;SDS011;51310;52.198;5.422;2024-02-26T10:08:36;13.38;;;7.40;;
64842;SDS011;51310;52.198;5.422;2024-02-26T10:11:12;15.27;;;6.57;;
64842;SDS011;51310;52.198;5.422;2024-02-26T10:13:39;10.93;;;5.35;;
64842;SDS011;51310;52.198;5.422;2024-02-26T10:16:06;15.07;;;7.68;;
64842;SDS011;51310;52.198;5.422;2024-02-26T10:18:45;12.48;;;6.70;;
64842;SDS011;51310;52.198;5.422;2024-02-26T10:21:19;13.20;;;6.95;;
64842;SDS011;51310;52.198;5.422;2024-02-26T10:23:46;12.45;;;6.53;;
64842;SDS011;51310;52.198;5.422;2024-02-26T10:26:14;11.27;;;5.97;;
64842;SDS011;51310;52.198;5.422;2024-02-26T10:28:44;10.88;;;6.38;;
64842;SDS011;51310;52.198;5.422;2024-02-26T10:31:11;12.70;;;7.90;;
64842;SDS011;51310;52.198;5.422;2024-02-26T10:33:39;12.27;;;6.50;;
64842;SDS011;51310;52.198;5.422;2024-02-26T10:36:08;14.55;;;6.22;;
64842;SDS011;51310;52.198;5.422;2024-02-26T10:38:34;11.90;;;6.18;;
64842;SDS011;51310;52.198;5.422;2024-02-26T10:41:23;9.00;;;5.75;;
64842;SDS011;51310;52.198;5.422;2024-02-26T10:43:48;12.15;;;6.63;;
64842;SDS011;51310;52.198;5.422;2024-02-26T10:46:16;11.13;;;6.15;;
64842;SDS011;51310;52.198;5.422;2024-02-26T10:48:49;12.30;;;7.70;;
64842;SDS011;51310;52.198;5.422;2024-02-26T10:51:16;15.20;;;6.70;;
64842;SDS011;51310;52.198;5.422;2024-02-26T10:53:55;11.80;;;6.47;;
64842;SDS011;51310;52.198;5.422;2024-02-26T10:56:27;13.00;;;5.97;;
64842;SDS011;51310;52.198;5.422;2024-02-26T10:58:54;12.43;;;6.57;;
64842;SDS011;51310;52.198;5.422;2024-02-26T11:01:22;12.57;;;6.65;;
64842;SDS011;51310;52.198;5.422;2024-02-26T11:03:52;12.25;;;6.25;;
64842;SDS011;51310;52.198;5.422;2024-02-26T11:06:19;11.05;;;6.53;;
64842;SDS011;51310;52.198;5.422;2024-02-26T11:08:49;11.45;;;6.38;;
64842;SDS011;51310;52.198;5.422;2024-02-26T11:11:19;10.68;;;6.38;;
64842;SDS011;51310;52.198;5.422;2024-02-26T11:13:47;13.45;;;7.55;;
64842;SDS011;51310;52.198;5.422;2024-02-26T11:16:20;11.63;;;7.25;;
64842;SDS011;51310;52.198;5.422;2024-02-26T11:18:47;13.02;;;6.55;;
64842;SDS011;51310;52.198;5.422;2024-02-26T11:21:17;14.35;;;6.13;;
64842;SDS011;51310;52.198;5.422;2024-02-26T11:23:45;13.70;;;6.65;;
64842;SDS011;51310;52.198;5.422;2024-02-26T11:26:12;11.80;;;7.60;;
64842;SDS011;51310;52.198;5.422;2024-02-26T11:28:42;11.20;;;6.53;;
64842;SDS011;51310;52.198;5.422;2024-02-26T11:31:10;11.90;;;6.15;;
64842;SDS011;51310;52.198;5.422;2024-02-26T11:33:38;11.07;;;6.53;;
64842;SDS011;51310;52.198;5.422;2024-02-26T11:36:11;11.00;;;6.93;;
64842;SDS011;51310;52.198;5.422;2024-02-26T11:38:39;9.65;;;5.53;;
64842;SDS011;51310;52.198;5.422;2024-02-26T11:41:05;14.00;;;7.38;;
64842;SDS011;51310;52.198;5.422;2024-02-26T11:46:26;13.13;;;7.13;;
64842;SDS011;51310;52.198;5.422;2024-02-26T11:48:58;14.00;;;7.88;;
64842;SDS011;51310;52.198;5.422;2024-02-26T11:51:54;11.93;;;6.35;;
64842;SDS011;51310;52.198;5.422;2024-02-26T11:54:38;15.68;;;6.63;;
64842;SDS011;51310;52.198;5.422;2024-02-26T11:57:27;11.75;;;6.68;;
64842;SDS011;51310;52.198;5.422;2024-02-26T12:00:11;14.98;;;7.28;;
64842;SDS011;51310;52.198;5.422;2024-02-26T12:05:23;13.30;;;7.65;;
64842;SDS011;51310;52.198;5.422;2024-02-26T12:07:54;12.52;;;6.40;;
64842;SDS011;51310;52.198;5.422;2024-02-26T12:10:36;13.25;;;6.13;;
64842;SDS011;51310;52.198;5.422;2024-02-26T12:13:16;10.48;;;7.00;;
64842;SDS011;51310;52.198;5.422;2024-02-26T12:15:45;13.55;;;7.93;;
64842;SDS011;51310;52.198;5.422;2024-02-26T12:18:23;10.23;;;5.60;;
64842;SDS011;51310;52.198;5.422;2024-02-26T12:20:59;14.52;;;6.43;;
64842;SDS011;51310;52.198;5.422;2024-02-26T12:23:27;11.27;;;6.75;;
64842;SDS011;51310;52.198;5.422;2024-02-26T12:25:53;10.90;;;5.22;;
64842;SDS011;51310;52.198;5.422;2024-02-26T12:28:31;13.25;;;7.43;;
64842;SDS011;51310;52.198;5.422;2024-02-26T12:30:57;8.77;;;4.97;;
64842;SDS011;51310;52.198;5.422;2024-02-26T12:33:24;12.32;;;7.03;;
64842;SDS011;51310;52.198;5.422;2024-02-26T12:35:53;15.00;;;7.28;;
64842;SDS011;51310;52.198;5.422;2024-02-26T12:38:19;11.85;;;6.43;;
64842;SDS011;51310;52.198;5.422;2024-02-26T12:40:45;8.73;;;5.90;;
64842;SDS011;51310;52.198;5.422;2024-02-26T12:43:13;15.93;;;5.72;;
64842;SDS011;51310;52.198;5.422;2024-02-26T12:45:40;9.48;;;5.75;;
64842;SDS011;51310;52.198;5.422;2024-02-26T12:48:06;9.43;;;6.72;;
64842;SDS011;51310;52.198;5.422;2024-02-26T12:50:34;8.88;;;5.50;;
64842;SDS011;51310;52.198;5.422;2024-02-26T12:53:00;10.98;;;6.10;;
64842;SDS011;51310;52.198;5.422;2024-02-26T12:55:26;9.00;;;5.25;;
64842;SDS011;51310;52.198;5.422;2024-02-26T12:57:52;11.40;;;5.90;;
64842;SDS011;51310;52.198;5.422;2024-02-26T13:00:21;11.18;;;6.00;;
64842;SDS011;51310;52.198;5.422;2024-02-26T13:02:51;9.53;;;6.23;;
64842;SDS011;51310;52.198;5.422;2024-02-26T13:05:20;9.38;;;5.53;;
64842;SDS011;51310;52.198;5.422;2024-02-26T13:07:47;11.40;;;6.55;;
64842;SDS011;51310;52.198;5.422;2024-02-26T13:10:13;9.40;;;5.72;;
64842;SDS011;51310;52.198;5.422;2024-02-26T13:12:49;9.57;;;5.13;;
64842;SDS011;51310;52.198;5.422;2024-02-26T13:15:16;10.52;;;5.25;;
64842;SDS011;51310;52.198;5.422;2024-02-26T13:17:45;10.82;;;5.90;;
64842;SDS011;51310;52.198;5.422;2024-02-26T13:20:13;12.18;;;6.80;;
64842;SDS011;51310;52.198;5.422;2024-02-26T13:23:03;9.32;;;5.10;;
64842;SDS011;51310;52.198;5.422;2024-02-26T13:25:32;8.80;;;5.85;;
64842;SDS011;51310;52.198;5.422;2024-02-26T13:30:56;11.13;;;6.10;;
64842;SDS011;51310;52.198;5.422;2024-02-26T13:33:29;9.77;;;5.43;;
64842;SDS011;51310;52.198;5.422;2024-02-26T13:35:56;8.73;;;5.82;;
64842;SDS011;51310;52.198;5.422;2024-02-26T13:38:24;10.10;;;5.65;;
64842;SDS011;51310;52.198;5.422;2024-02-26T13:40:51;11.80;;;5.47;;
64842;SDS011;51310;52.198;5.422;2024-02-26T13:43:17;10.43;;;6.25;;
64842;SDS011;51310;52.198;5.422;2024-02-26T13:45:44;9.20;;;5.00;;
64842;SDS011;51310;52.198;5.422;2024-02-26T13:48:11;9.27;;;5.40;;
64842;SDS011;51310;52.198;5.422;2024-02-26T13:50:39;9.65;;;5.13;;
64842;SDS011;51310;52.198;5.422;2024-02-26T13:53:13;6.32;;;4.20;;
64842;SDS011;51310;52.198;5.422;2024-02-26T13:55:39;11.50;;;4.25;;
64842;SDS011;51310;52.198;5.422;2024-02-26T13:58:11;7.97;;;4.35;;
64842;SDS011;51310;52.198;5.422;2024-02-26T14:00:39;8.93;;;4.65;;
64842;SDS011;51310;52.198;5.422;2024-02-26T14:03:06;6.32;;;3.92;;
64842;SDS011;51310;52.198;5.422;2024-02-26T14:05:32;9.05;;;4.40;;
64842;SDS011;51310;52.198;5.422;2024-02-26T14:07:58;15.25;;;4.88;;
64842;SDS011;51310;52.198;5.422;2024-02-26T14:10:24;8.50;;;4.55;;
64842;SDS011;51310;52.198;5.422;2024-02-26T14:12:51;6.60;;;4.32;;
64842;SDS011;51310;52.198;5.422;2024-02-26T14:15:16;7.45;;;4.43;;
64842;SDS011;51310;52.198;5.422;2024-02-26T14:17:42;7.57;;;4.50;;
64842;SDS011;51310;52.198;5.422;2024-02-26T14:20:08;6.90;;;4.07;;
64842;SDS011;51310;52.198;5.422;2024-02-26T14:22:35;6.10;;;3.55;;
64842;SDS011;51310;52.198;5.422;2024-02-26T14:25:01;7.20;;;4.03;;
64842;SDS011;51310;52.198;5.422;2024-02-26T14:27:27;6.15;;;3.28;;
64842;SDS011;51310;52.198;5.422;2024-02-26T14:29:53;6.18;;;3.70;;
64842;SDS011;51310;52.198;5.422;2024-02-26T14:32:20;6.45;;;3.50;;
64842;SDS011;51310;52.198;5.422;2024-02-26T14:34:46;6.38;;;3.72;;
64842;SDS011;51310;52.198;5.422;2024-02-26T14:37:12;7.57;;;3.92;;
64842;SDS011;51310;52.198;5.422;2024-02-26T14:39:38;10.95;;;3.50;;
64842;SDS011;51310;52.198;5.422;2024-02-26T14:42:03;9.02;;;4.13;;
64842;SDS011;51310;52.198;5.422;2024-02-26T14:44:30;4.75;;;3.05;;